Cisne Branco — PWCB — position and weather

sailwx.info

Track history (hours):
 
Tides and Currents Weather Stations Pressure Air Temp Water Temp Dewpoint Dewpoint Depression Visibility Wind Speed Wind Dir Waves Ship Positions

Cisne Branco (Brazil)

Last reported at 2018-Apr-01 15:01 UTC. Time now 2018-Apr-27 08:49 UTC.
Position S 23°03' W 043°15'.
Warning: this ship's position is 25 days out of date.

Length 78 m; draft 4.7 m.

MMSI: 710428000.

Date/timePositionNaut miles runAvg speedWind from/ knotsBaromVisibWave heightAir tempDewpointWater temp
2018-Apr-01 15:01S 23°03' W 043°15'3 6.2
2018-Apr-01 14:30S 22°60' W 043°14'3 5.6
2018-Apr-01 14:00S 22°60' W 043°11'2 5.0
2018-Apr-01 13:30S 22°58' W 043°09'  
2018-Mar-25 16:29S 22°54' W 043°11'0 0.7
2018-Mar-25 16:00S 22°53' W 043°11'2 3.6
2018-Mar-25 15:30S 22°55' W 043°09'2 4.5
2018-Mar-25 15:01S 22°57' W 043°08'3 4.3
2018-Mar-25 14:16S 22°59' W 043°11'1 4.1
2018-Mar-25 13:57S 22°60' W 043°12'7 5.3
2018-Mar-25 12:42S 23°04' W 043°18'2 5.3
2018-Mar-25 12:23S 23°04' W 043°20'6 2.8
2018-Mar-25 10:21S 23°05' W 043°26'0 0.7
2018-Mar-25 09:36S 23°05' W 043°26'1 3.0
2018-Mar-25 09:12S 23°06' W 043°25'1 5.0
2018-Mar-25 08:58S 23°05' W 043°26'4 2.7
2018-Mar-25 07:20S 23°09' W 043°29'3 5.8
2018-Mar-25 06:53S 23°08' W 043°26'2 4.8
2018-Mar-25 06:29S 23°06' W 043°26'3 5.0
2018-Mar-25 05:58S 23°04' W 043°24'4 6.1
2018-Mar-25 05:19S 23°04' W 043°20'2 6.6
2018-Mar-25 04:59S 23°03' W 043°18'6 6.1
2018-Mar-25 04:03S 23°04' W 043°11'0 5.9
2018-Mar-25 04:00S 23°04' W 043°11'3 6.0
2018-Mar-25 03:28S 23°01' W 043°09'3 5.7
2018-Mar-25 02:59S 22°58' W 043°08'3 6.5
2018-Mar-25 02:30S 22°55' W 043°09'1 1.9
2018-Mar-25 01:59S 22°54' W 043°09'0 0.0
2018-Mar-25 01:29S 22°54' W 043°09'0 0.0
2018-Mar-25 00:59S 22°54' W 043°09'0 0.0
2018-Mar-25 00:29S 22°54' W 043°09'0 0.1
2018-Mar-24 23:59S 22°54' W 043°09'0 0.0
2018-Mar-24 23:26S 22°54' W 043°09'0 0.1
2018-Mar-24 22:59S 22°54' W 043°09'0 0.1
2018-Mar-24 22:26S 22°54' W 043°09'0 0.1
2018-Mar-24 21:59S 22°54' W 043°09'0 0.1
2018-Mar-24 21:29S 22°54' W 043°09'0 0.0
2018-Mar-24 20:59S 22°54' W 043°09'0 0.1
2018-Mar-24 20:29S 22°54' W 043°09'0 0.0
2018-Mar-24 19:59S 22°54' W 043°09'0 0.0
2018-Mar-24 18:44S 22°54' W 043°09'0 0.1
2018-Mar-24 18:29S 22°54' W 043°09'0 0.1
2018-Mar-24 17:56S 22°54' W 043°09'0 0.0
2018-Mar-24 17:29S 22°54' W 043°09'0 0.1
2018-Mar-24 16:59S 22°54' W 043°09'0 0.1
2018-Mar-24 16:29S 22°54' W 043°09'0 0.1
2018-Mar-24 15:59S 22°54' W 043°09'0 0.4
2018-Mar-24 15:30S 22°54' W 043°09'3 5.2
2018-Mar-24 15:01S 22°57' W 043°08'4 4.5
2018-Mar-24 14:10S 22°60' W 043°06'1 7.0
2018-Mar-24 13:59S 22°59' W 043°06'1 2.1
2018-Mar-24 13:30S 22°58' W 043°05'3 6.2
2018-Mar-24 13:00S 22°56' W 043°08'4 7.5
2018-Mar-24 12:30S 22°53' W 043°09'1 2.3
2018-Mar-24 12:01S 22°52' W 043°08'  
Track history (hours):
 
Tides and Currents Weather Stations Pressure Air Temp Water Temp Dewpoint Dewpoint Depression Visibility Wind Speed Wind Dir Waves Ship Positions

Cisne Branco (Brazil)

Last reported at 2018-Apr-01 15:01 UTC. Time now 2018-Apr-27 08:49 UTC.
Position S 23°03' W 043°15'.
Warning: this ship's position is 25 days out of date.

Length 78 m; draft 4.7 m.

MMSI: 710428000.

Date/timePositionNaut miles runAvg speedWind from/ knotsBaromVisibWave heightAir tempDewpointWater temp
2018-Apr-01 15:01S 23°03' W 043°15'3 6.2
2018-Apr-01 14:30S 22°60' W 043°14'3 5.6
2018-Apr-01 14:00S 22°60' W 043°11'2 5.0
2018-Apr-01 13:30S 22°58' W 043°09'  
2018-Mar-25 16:29S 22°54' W 043°11'0 0.7
2018-Mar-25 16:00S 22°53' W 043°11'2 3.6
2018-Mar-25 15:30S 22°55' W 043°09'2 4.5
2018-Mar-25 15:01S 22°57' W 043°08'3 4.3
2018-Mar-25 14:16S 22°59' W 043°11'1 4.1
2018-Mar-25 13:57S 22°60' W 043°12'7 5.3
2018-Mar-25 12:42S 23°04' W 043°18'2 5.3
2018-Mar-25 12:23S 23°04' W 043°20'6 2.8
2018-Mar-25 10:21S 23°05' W 043°26'0 0.7
2018-Mar-25 09:36S 23°05' W 043°26'1 3.0
2018-Mar-25 09:12S 23°06' W 043°25'1 5.0
2018-Mar-25 08:58S 23°05' W 043°26'4 2.7
2018-Mar-25 07:20S 23°09' W 043°29'3 5.8
2018-Mar-25 06:53S 23°08' W 043°26'2 4.8
2018-Mar-25 06:29S 23°06' W 043°26'3 5.0
2018-Mar-25 05:58S 23°04' W 043°24'4 6.1
2018-Mar-25 05:19S 23°04' W 043°20'2 6.6
2018-Mar-25 04:59S 23°03' W 043°18'6 6.1
2018-Mar-25 04:03S 23°04' W 043°11'0 5.9
2018-Mar-25 04:00S 23°04' W 043°11'3 6.0
2018-Mar-25 03:28S 23°01' W 043°09'3 5.7
2018-Mar-25 02:59S 22°58' W 043°08'3 6.5
2018-Mar-25 02:30S 22°55' W 043°09'1 1.9
2018-Mar-25 01:59S 22°54' W 043°09'0 0.0
2018-Mar-25 01:29S 22°54' W 043°09'0 0.0
2018-Mar-25 00:59S 22°54' W 043°09'0 0.0
2018-Mar-25 00:29S 22°54' W 043°09'0 0.1
2018-Mar-24 23:59S 22°54' W 043°09'0 0.0
2018-Mar-24 23:26S 22°54' W 043°09'0 0.1
2018-Mar-24 22:59S 22°54' W 043°09'0 0.1
2018-Mar-24 22:26S 22°54' W 043°09'0 0.1
2018-Mar-24 21:59S 22°54' W 043°09'0 0.1
2018-Mar-24 21:29S 22°54' W 043°09'0 0.0
2018-Mar-24 20:59S 22°54' W 043°09'0 0.1
2018-Mar-24 20:29S 22°54' W 043°09'0 0.0
2018-Mar-24 19:59S 22°54' W 043°09'0 0.0
2018-Mar-24 18:44S 22°54' W 043°09'0 0.1
2018-Mar-24 18:29S 22°54' W 043°09'0 0.1
2018-Mar-24 17:56S 22°54' W 043°09'0 0.0
2018-Mar-24 17:29S 22°54' W 043°09'0 0.1
2018-Mar-24 16:59S 22°54' W 043°09'0 0.1
2018-Mar-24 16:29S 22°54' W 043°09'0 0.1
2018-Mar-24 15:59S 22°54' W 043°09'0 0.4
2018-Mar-24 15:30S 22°54' W 043°09'3 5.2
2018-Mar-24 15:01S 22°57' W 043°08'4 4.5
2018-Mar-24 14:10S 22°60' W 043°06'1 7.0
2018-Mar-24 13:59S 22°59' W 043°06'1 2.1
2018-Mar-24 13:30S 22°58' W 043°05'3 6.2
2018-Mar-24 13:00S 22°56' W 043°08'4 7.5
2018-Mar-24 12:30S 22°53' W 043°09'1 2.3
2018-Mar-24 12:01S 22°52' W 043°08'  

Dump ship's entire track history